createdAt,value
2023-04-21T00:02:18.385Z,7.80
2023-04-21T00:04:47.519Z,7.23
2023-04-21T00:07:16.606Z,7.13
2023-04-21T00:09:43.459Z,7.43
2023-04-21T00:12:15.290Z,6.97
2023-04-21T00:14:42.052Z,6.90
2023-04-21T00:17:08.791Z,6.97
2023-04-21T00:19:37.841Z,6.83
2023-04-21T00:22:04.710Z,6.80
2023-04-21T00:24:31.454Z,7.43
2023-04-21T00:26:58.213Z,6.83
2023-04-21T00:29:25.066Z,6.70
2023-04-21T00:31:54.383Z,6.57
2023-04-21T00:34:23.319Z,6.87
2023-04-21T00:36:50.071Z,6.30
2023-04-21T00:39:16.942Z,7.03
2023-04-21T00:41:43.903Z,7.10
2023-04-21T00:44:10.734Z,7.10
2023-04-21T00:46:38.600Z,6.40
2023-04-21T00:49:08.150Z,6.60
2023-04-21T00:51:35.991Z,7.17
2023-04-21T00:54:06.692Z,7.13
2023-04-21T00:56:34.637Z,7.17
2023-04-21T00:59:03.893Z,7.00
2023-04-21T01:01:31.614Z,6.77
2023-04-21T01:03:59.578Z,6.97
2023-04-21T01:06:32.214Z,7.10
2023-04-21T01:08:59.065Z,6.77
2023-04-21T01:11:26.424Z,6.87
2023-04-21T01:13:56.779Z,7.40
2023-04-21T01:16:24.138Z,6.37
2023-04-21T01:18:53.474Z,6.47
2023-04-21T01:21:21.876Z,6.60
2023-04-21T01:23:50.931Z,6.63
2023-04-21T01:26:21.389Z,6.77
2023-04-21T01:28:50.319Z,6.80
2023-04-21T01:31:17.306Z,6.77
2023-04-21T01:33:44.755Z,6.90
2023-04-21T01:36:13.648Z,6.73
2023-04-21T01:38:43.265Z,7.50
2023-04-21T01:41:10.861Z,7.50
2023-04-21T01:43:37.831Z,6.77
2023-04-21T01:46:07.446Z,6.67
2023-04-21T01:48:36.412Z,6.57
2023-04-21T01:51:03.166Z,6.77
2023-04-21T01:53:29.991Z,7.57
2023-04-21T01:55:59.310Z,6.97
2023-04-21T01:58:28.225Z,6.90
2023-04-21T02:00:54.992Z,6.73
2023-04-21T02:03:21.879Z,6.63
2023-04-21T02:05:50.769Z,7.07
2023-04-21T02:08:17.896Z,6.80
2023-04-21T02:10:49.418Z,6.43
2023-04-21T02:13:18.289Z,6.87
2023-04-21T02:15:45.130Z,6.97
2023-04-21T02:18:11.943Z,6.70
2023-04-21T02:20:38.822Z,6.70
2023-04-21T02:23:05.637Z,6.53
2023-04-21T02:25:34.848Z,6.70
2023-04-21T02:28:01.603Z,7.00
2023-04-21T02:30:28.348Z,6.77
2023-04-21T02:32:55.202Z,6.40
2023-04-21T02:35:24.246Z,6.60
2023-04-21T02:37:51.008Z,7.37
2023-04-21T02:40:21.234Z,7.07
2023-04-21T02:42:48.009Z,6.70
2023-04-21T02:45:14.808Z,6.67
2023-04-21T02:47:41.575Z,6.33
2023-04-21T02:50:10.988Z,7.20
2023-04-21T02:52:40.518Z,6.63
2023-04-21T02:55:07.559Z,6.60
2023-04-21T02:57:34.343Z,6.73
2023-04-21T03:00:01.120Z,6.53
2023-04-21T03:02:27.991Z,6.20
2023-04-21T03:04:54.849Z,7.20
2023-04-21T03:07:21.714Z,6.53
2023-04-21T03:09:51.216Z,6.67
2023-04-21T03:12:17.962Z,6.50
2023-04-21T03:14:49.810Z,6.60
2023-04-21T03:17:16.574Z,6.87
2023-04-21T03:19:48.190Z,6.90
2023-04-21T03:22:15.024Z,6.57
2023-04-21T03:24:48.799Z,6.47
2023-04-21T03:27:15.538Z,6.90
2023-04-21T03:29:42.308Z,6.43
2023-04-21T03:32:09.087Z,6.83
2023-04-21T03:34:38.378Z,6.30
2023-04-21T03:37:05.311Z,6.03
2023-04-21T03:39:34.356Z,6.30
2023-04-21T03:42:01.513Z,7.00
2023-04-21T03:44:28.856Z,6.53
2023-04-21T03:46:55.737Z,6.70
2023-04-21T03:49:24.750Z,6.60
2023-04-21T03:51:52.593Z,6.20
2023-04-21T03:54:19.367Z,7.00
2023-04-21T03:56:46.226Z,6.00
2023-04-21T03:59:12.987Z,6.20
2023-04-21T04:01:39.793Z,5.60
2023-04-21T04:04:06.713Z,5.90
2023-04-21T04:06:34.132Z,5.50
2023-04-21T04:09:04.518Z,5.83
2023-04-21T04:11:31.976Z,6.77
2023-04-21T04:13:59.170Z,6.57
2023-04-21T04:16:26.046Z,6.10
2023-04-21T04:18:53.452Z,6.00
2023-04-21T04:21:20.480Z,5.90
2023-04-21T04:23:47.215Z,5.80
2023-04-21T04:26:14.004Z,6.20
2023-04-21T04:28:41.229Z,5.63
2023-04-21T04:31:08.072Z,5.50
2023-04-21T04:33:37.540Z,6.73
2023-04-21T04:36:07.185Z,6.33
2023-04-21T04:38:35.603Z,5.87
2023-04-21T04:41:05.164Z,5.43
2023-04-21T04:43:36.869Z,5.70
2023-04-21T04:46:03.896Z,5.43
2023-04-21T04:48:30.671Z,5.70
2023-04-21T04:50:57.655Z,5.80
2023-04-21T04:53:26.577Z,6.03
2023-04-21T04:55:55.964Z,6.07
2023-04-21T04:58:22.697Z,6.03
2023-04-21T05:00:52.033Z,5.13
2023-04-21T05:03:21.124Z,6.50
2023-04-21T05:05:48.104Z,6.17
2023-04-21T05:08:17.237Z,5.80
2023-04-21T05:10:44.847Z,6.00
2023-04-21T05:13:11.603Z,6.13
2023-04-21T05:15:40.554Z,5.97
2023-04-21T05:18:09.506Z,5.60
2023-04-21T05:20:38.739Z,5.83
2023-04-21T05:23:05.519Z,5.73
2023-04-21T05:25:34.899Z,6.10
2023-04-21T05:28:01.670Z,6.10
2023-04-21T05:30:28.395Z,6.03
2023-04-21T05:32:55.273Z,6.20
2023-04-21T05:35:22.074Z,6.03
2023-04-21T05:37:48.852Z,5.27
2023-04-21T05:40:15.638Z,6.73
2023-04-21T05:42:44.932Z,5.53
2023-04-21T05:45:13.840Z,5.63
2023-04-21T05:47:42.859Z,5.60
2023-04-21T05:50:10.472Z,5.60
2023-04-21T05:52:39.476Z,5.17
2023-04-21T05:55:06.808Z,5.13
2023-04-21T05:57:33.529Z,5.70
2023-04-21T06:00:00.302Z,5.37
2023-04-21T06:02:27.229Z,5.60
2023-04-21T06:04:56.753Z,5.30
2023-04-21T06:07:25.927Z,5.33
2023-04-21T06:09:52.756Z,4.93
2023-04-21T06:12:19.571Z,5.60
2023-04-21T06:14:48.463Z,5.80
2023-04-21T06:17:25.616Z,5.63
2023-04-21T06:19:53.385Z,5.30
2023-04-21T06:22:23.060Z,5.40
2023-04-21T06:24:52.273Z,5.40
2023-04-21T06:27:19.063Z,5.10
2023-04-21T06:29:48.315Z,4.87
2023-04-21T06:32:17.364Z,5.00
2023-04-21T06:34:44.115Z,4.83
2023-04-21T06:37:10.945Z,4.93
2023-04-21T06:39:37.685Z,5.10
2023-04-21T06:42:04.446Z,5.33
2023-04-21T06:44:32.429Z,5.20
2023-04-21T06:46:59.372Z,4.50
2023-04-21T06:49:26.158Z,4.73
2023-04-21T06:51:55.648Z,4.57
2023-04-21T06:54:24.717Z,4.50
2023-04-21T06:56:51.539Z,4.23
2023-04-21T06:59:18.685Z,4.37
2023-04-21T07:01:45.781Z,4.50
2023-04-21T07:04:12.608Z,4.63
2023-04-21T07:06:43.510Z,5.03
2023-04-21T07:09:12.567Z,4.20
2023-04-21T07:11:39.332Z,4.27
2023-04-21T07:14:08.463Z,3.83
2023-04-21T07:16:35.353Z,4.20
2023-04-21T07:19:04.731Z,5.17
2023-04-21T07:21:32.217Z,4.20
2023-04-21T07:23:59.102Z,3.83
2023-04-21T07:26:28.032Z,3.70
2023-04-21T07:28:55.557Z,4.63
2023-04-21T07:31:22.369Z,4.73
2023-04-21T07:33:49.229Z,4.90
2023-04-21T07:36:16.061Z,4.23
2023-04-21T07:38:43.543Z,4.00
2023-04-21T07:41:11.990Z,3.87
2023-04-21T07:43:39.586Z,3.60
2023-04-21T07:46:09.720Z,3.70
2023-04-21T07:48:36.535Z,3.57
2023-04-21T07:51:03.616Z,3.83
2023-04-21T07:53:31.204Z,3.87
2023-04-21T07:55:58.306Z,4.10
2023-04-21T07:58:27.579Z,3.77
2023-04-21T08:00:56.597Z,3.60
2023-04-21T08:03:24.569Z,3.67
2023-04-21T08:05:56.746Z,3.30
2023-04-21T08:08:26.033Z,3.90
2023-04-21T08:10:53.353Z,3.70
2023-04-21T08:13:21.697Z,3.50
2023-04-21T08:15:48.517Z,3.73
2023-04-21T08:18:18.147Z,3.43
2023-04-21T08:20:48.975Z,3.20
2023-04-21T08:23:15.821Z,3.10
2023-04-21T08:25:42.698Z,3.10
2023-04-21T08:28:11.591Z,3.00
2023-04-21T08:30:38.609Z,3.60
2023-04-21T08:33:08.633Z,3.27
2023-04-21T08:35:36.512Z,2.70
2023-04-21T08:38:03.533Z,3.00
2023-04-21T08:40:33.543Z,2.80
2023-04-21T08:43:00.371Z,3.60
2023-04-21T08:45:28.248Z,2.60
2023-04-21T08:47:55.842Z,2.87
2023-04-21T08:50:22.669Z,2.97
2023-04-21T08:52:49.464Z,3.07
2023-04-21T08:55:16.263Z,3.20
2023-04-21T08:57:43.012Z,2.93
2023-04-21T09:00:10.290Z,3.07
2023-04-21T09:03:00.828Z,2.77
2023-04-21T09:05:40.631Z,3.10
2023-04-21T09:08:13.413Z,2.60
2023-04-21T09:10:49.398Z,2.73
2023-04-21T09:13:17.746Z,2.90
2023-04-21T09:15:46.042Z,2.90
2023-04-21T09:18:21.149Z,2.97
2023-04-21T09:20:49.903Z,2.70
2023-04-21T09:23:19.182Z,2.63
2023-04-21T09:25:46.091Z,2.90
2023-04-21T09:28:15.376Z,2.77
2023-04-21T09:30:45.130Z,2.47
2023-04-21T09:33:30.671Z,2.30
2023-04-21T09:36:01.056Z,2.60
2023-04-21T09:38:30.146Z,2.47
2023-04-21T09:40:58.250Z,2.50
2023-04-21T09:43:27.278Z,2.67
2023-04-21T09:45:54.559Z,2.90
2023-04-21T09:48:23.510Z,2.67
2023-04-21T09:51:22.975Z,2.97
2023-04-21T09:53:36.988Z,2.43
2023-04-21T09:56:03.829Z,2.83
2023-04-21T09:58:35.304Z,2.50
2023-04-21T10:01:03.241Z,2.53
2023-04-21T10:03:32.285Z,2.80
2023-04-21T10:05:59.266Z,2.70
2023-04-21T10:08:26.081Z,2.83
2023-04-21T10:10:54.973Z,2.80
2023-04-21T10:13:21.718Z,2.83
2023-04-21T10:15:50.975Z,2.50
2023-04-21T10:18:25.095Z,2.50
2023-04-21T10:20:56.616Z,2.67
2023-04-21T10:23:33.493Z,2.67
2023-04-21T10:26:06.868Z,2.30
2023-04-21T10:28:55.765Z,2.80
2023-04-21T10:31:29.558Z,2.57
2023-04-21T10:34:08.595Z,3.20
2023-04-21T10:36:52.525Z,2.70
2023-04-21T10:39:47.577Z,2.87
2023-04-21T10:42:23.185Z,2.43
2023-04-21T10:44:56.225Z,2.70
2023-04-21T10:47:35.161Z,2.67
2023-04-21T10:50:17.840Z,2.40
2023-04-21T10:52:52.210Z,2.60
2023-04-21T10:55:20.659Z,2.50
2023-04-21T10:57:47.458Z,2.43
2023-04-21T11:00:21.057Z,2.93
2023-04-21T11:03:14.544Z,2.40
2023-04-21T11:05:43.652Z,2.60
2023-04-21T11:08:16.615Z,2.55
2023-04-21T11:10:49.035Z,2.20
2023-04-21T11:13:20.685Z,2.40
2023-04-21T11:16:01.566Z,2.47
2023-04-21T11:18:36.771Z,2.22
2023-04-21T11:21:10.403Z,2.33
2023-04-21T11:23:41.213Z,2.63
2023-04-21T11:26:08.175Z,2.40
2023-04-21T11:28:34.910Z,2.47
2023-04-21T11:31:01.991Z,2.70
2023-04-21T11:33:30.264Z,2.78
2023-04-21T11:35:59.084Z,2.85
2023-04-21T11:38:25.906Z,2.60
2023-04-21T11:40:55.097Z,2.42
2023-04-21T11:43:21.909Z,2.30
2023-04-21T11:45:52.384Z,2.60
2023-04-21T11:48:21.917Z,2.33
2023-04-21T11:50:49.439Z,2.38
2023-04-21T11:53:19.317Z,2.40
2023-04-21T11:55:46.124Z,3.05
2023-04-21T11:58:16.161Z,2.47
2023-04-21T12:00:50.326Z,2.10
2023-04-21T12:03:19.791Z,2.55
2023-04-21T12:05:55.987Z,2.05
2023-04-21T12:08:25.149Z,2.50
2023-04-21T12:10:52.612Z,2.80
2023-04-21T12:13:28.320Z,2.53
2023-04-21T12:15:55.370Z,2.55
2023-04-21T12:18:24.613Z,2.83
2023-04-21T12:20:52.193Z,2.67
2023-04-21T12:23:19.282Z,2.90
2023-04-21T12:25:50.069Z,2.92
2023-04-21T12:28:17.963Z,3.08
2023-04-21T12:30:47.229Z,2.40
2023-04-21T12:33:16.303Z,3.03
2023-04-21T12:35:45.278Z,2.63
2023-04-21T12:38:14.182Z,2.80
2023-04-21T12:40:40.988Z,2.92
2023-04-21T12:43:07.896Z,3.35
2023-04-21T12:45:34.734Z,2.95
2023-04-21T12:48:05.080Z,3.05
2023-04-21T12:50:32.151Z,3.13
2023-04-21T12:52:59.376Z,2.80
2023-04-21T12:55:26.152Z,3.08
2023-04-21T12:57:52.983Z,2.80
2023-04-21T13:00:20.669Z,2.55
2023-04-21T13:02:47.698Z,3.00
2023-04-21T13:05:15.070Z,3.03
2023-04-21T13:07:44.434Z,3.17
2023-04-21T13:10:16.424Z,3.53
2023-04-21T13:12:43.206Z,2.97
2023-04-21T13:15:10.809Z,3.00
2023-04-21T13:17:37.613Z,3.03
2023-04-21T13:20:04.944Z,2.83
2023-04-21T13:22:34.058Z,2.80
2023-04-21T13:25:05.533Z,2.30
2023-04-21T13:27:34.830Z,3.10
2023-04-21T13:30:01.690Z,2.42
2023-04-21T13:32:30.727Z,3.08
2023-04-21T13:34:59.793Z,2.60
2023-04-21T13:37:28.940Z,2.90
2023-04-21T13:40:00.525Z,2.90
2023-04-21T13:42:29.714Z,2.70
2023-04-21T13:44:56.671Z,2.40
2023-04-21T13:47:24.091Z,2.78
2023-04-21T13:49:51.600Z,2.72
2023-04-21T13:52:18.385Z,2.72
2023-04-21T13:54:45.249Z,2.60
2023-04-21T13:57:12.151Z,2.55
2023-04-21T13:59:42.067Z,2.67
2023-04-21T14:02:11.301Z,2.63
2023-04-21T14:04:40.536Z,2.45
2023-04-21T14:07:10.215Z,2.38
2023-04-21T14:09:39.467Z,2.45
2023-04-21T14:12:06.295Z,2.53
2023-04-21T14:17:04.485Z,2.38
2023-04-21T14:19:32.474Z,2.33
2023-04-21T14:21:59.618Z,2.50
2023-04-21T14:24:30.175Z,2.63
2023-04-21T14:26:59.310Z,2.15
2023-04-21T14:29:26.198Z,2.50
2023-04-21T14:31:58.834Z,2.30
2023-04-21T14:34:28.760Z,2.42
2023-04-21T14:36:55.983Z,2.42
2023-04-21T14:39:23.090Z,2.70
2023-04-21T14:41:52.361Z,3.13
2023-04-21T14:44:19.244Z,2.67
2023-04-21T14:46:56.865Z,2.47
2023-04-21T14:49:30.731Z,2.38
2023-04-21T14:51:57.631Z,2.45
2023-04-21T14:54:24.490Z,2.50
2023-04-21T14:57:03.350Z,2.38
2023-04-21T14:59:37.777Z,2.30
2023-04-21T15:02:04.735Z,2.35
2023-04-21T15:04:33.894Z,2.60
2023-04-21T15:07:01.848Z,2.50
2023-04-21T15:09:31.257Z,2.40
2023-04-21T15:11:58.097Z,2.75
2023-04-21T15:14:24.968Z,2.40
2023-04-21T15:16:52.082Z,2.38
2023-04-21T15:19:18.859Z,2.38
2023-04-21T15:21:45.798Z,2.08
2023-04-21T15:24:12.589Z,2.45
2023-04-21T15:26:40.282Z,2.47
2023-04-21T15:29:07.261Z,2.60
2023-04-21T15:31:34.170Z,2.40
2023-04-21T15:34:01.141Z,2.80
2023-04-21T15:36:31.175Z,2.63
2023-04-21T15:39:00.192Z,3.27
2023-04-21T15:41:29.623Z,3.00
2023-04-21T15:43:56.522Z,2.17
2023-04-21T15:46:26.018Z,2.27
2023-04-21T15:48:52.787Z,2.60
2023-04-21T15:51:21.798Z,2.47
2023-04-21T15:53:49.378Z,2.30
2023-04-21T15:56:16.768Z,2.60
2023-04-21T15:58:43.682Z,2.50
2023-04-21T16:01:10.501Z,2.80
2023-04-21T16:03:37.964Z,2.63
2023-04-21T16:06:07.778Z,2.50
2023-04-21T16:08:34.659Z,2.47
2023-04-21T16:11:01.611Z,2.90
2023-04-21T16:13:28.725Z,2.90
2023-04-21T16:15:55.642Z,2.87
2023-04-21T16:18:22.635Z,2.70
2023-04-21T16:20:49.412Z,2.57
2023-04-21T16:23:16.163Z,2.90
2023-04-21T16:25:43.215Z,2.80
2023-04-21T16:28:11.487Z,2.50
2023-04-21T16:30:44.010Z,3.17
2023-04-21T16:33:14.588Z,2.70
2023-04-21T16:35:41.695Z,2.30
2023-04-21T16:38:11.187Z,2.73
2023-04-21T16:40:37.983Z,2.43
2023-04-21T16:43:09.404Z,2.60
2023-04-21T16:45:36.306Z,2.77
2023-04-21T16:48:03.214Z,2.40
2023-04-21T16:50:32.225Z,2.53
2023-04-21T16:53:01.265Z,2.53
2023-04-21T16:55:31.453Z,2.40
2023-04-21T16:58:00.780Z,2.73
2023-04-21T17:00:30.384Z,2.90
2023-04-21T17:02:57.739Z,2.90
2023-04-21T17:05:24.774Z,3.10
2023-04-21T17:07:51.582Z,2.83
2023-04-21T17:10:18.478Z,2.57
2023-04-21T17:12:46.228Z,2.63
2023-04-21T17:15:13.295Z,2.80
2023-04-21T17:17:44.783Z,4.40
2023-04-21T17:20:15.281Z,3.20
2023-04-21T17:22:42.266Z,2.87
2023-04-21T17:25:09.942Z,2.77
2023-04-21T17:27:40.777Z,2.73
2023-04-21T17:30:09.279Z,2.50
2023-04-21T17:32:37.090Z,2.77
2023-04-21T17:35:05.763Z,3.07
2023-04-21T17:37:33.619Z,3.00
2023-04-21T17:40:03.236Z,3.10
2023-04-21T17:42:30.532Z,3.07
2023-04-21T17:44:59.792Z,2.70
2023-04-21T17:47:28.773Z,3.60
2023-04-21T17:49:55.988Z,2.73
2023-04-21T17:52:24.938Z,3.80
2023-04-21T17:54:51.672Z,3.27
2023-04-21T17:57:18.423Z,3.20
2023-04-21T17:59:47.617Z,3.20
2023-04-21T18:02:14.579Z,3.07
2023-04-21T18:04:41.805Z,3.40
2023-04-21T18:07:08.824Z,3.50
2023-04-21T18:09:35.658Z,3.50
2023-04-21T18:12:04.586Z,3.10
2023-04-21T18:14:31.740Z,3.53
2023-04-21T18:16:58.528Z,3.17
2023-04-21T18:19:25.274Z,3.33
2023-04-21T18:21:52.012Z,3.17
2023-04-21T18:24:23.501Z,3.47
2023-04-21T18:26:51.399Z,3.73
2023-04-21T18:29:20.264Z,3.83
2023-04-21T18:31:51.740Z,3.57
2023-04-21T18:34:18.598Z,3.90
2023-04-21T18:36:45.562Z,3.87
2023-04-21T18:39:12.290Z,3.60
2023-04-21T18:41:39.145Z,3.87
2023-04-21T18:44:05.901Z,3.50
2023-04-21T18:46:35.588Z,4.30
2023-04-21T18:49:02.442Z,3.90
2023-04-21T18:51:31.355Z,3.93
2023-04-21T18:54:00.590Z,4.10
2023-04-21T18:56:31.416Z,3.83
2023-04-21T18:58:58.823Z,3.77
2023-04-21T19:01:25.778Z,3.73
2023-04-21T19:03:57.723Z,4.40
2023-04-21T19:06:24.605Z,3.93
2023-04-21T19:08:52.746Z,4.60
2023-04-21T19:11:19.547Z,4.10
2023-04-21T19:13:48.523Z,4.40
2023-04-21T19:16:17.601Z,4.50
2023-04-21T19:18:47.371Z,4.27
2023-04-21T19:21:16.734Z,4.80
2023-04-21T19:23:45.748Z,4.90
2023-04-21T19:26:16.465Z,4.90
2023-04-21T19:28:43.393Z,4.80
2023-04-21T19:31:10.260Z,5.63
2023-04-21T19:33:39.422Z,5.00
2023-04-21T19:36:06.660Z,4.60
2023-04-21T19:38:36.235Z,5.13
2023-04-21T19:41:02.986Z,5.00
2023-04-21T19:43:31.966Z,5.13
2023-04-21T19:45:58.829Z,4.97
2023-04-21T19:48:25.976Z,5.03
2023-04-21T19:50:54.896Z,5.43
2023-04-21T19:53:24.075Z,5.47
2023-04-21T19:55:52.478Z,5.60
2023-04-21T19:58:32.128Z,5.83
2023-04-21T20:01:08.499Z,5.77
2023-04-21T20:03:35.584Z,5.47
2023-04-21T20:06:04.911Z,5.53
2023-04-21T20:08:31.858Z,5.23
2023-04-21T20:10:58.630Z,5.67
2023-04-21T20:13:25.695Z,5.43
2023-04-21T20:15:55.723Z,5.60
2023-04-21T20:18:22.566Z,5.80
2023-04-21T20:20:49.466Z,6.17
2023-04-21T20:23:16.435Z,6.40
2023-04-21T20:25:45.740Z,6.47
2023-04-21T20:28:12.895Z,6.33
2023-04-21T20:30:42.363Z,7.17
2023-04-21T20:33:09.474Z,6.47
2023-04-21T20:35:39.440Z,6.70
2023-04-21T20:38:12.119Z,6.67
2023-04-21T20:40:39.450Z,6.43
2023-04-21T20:43:06.356Z,6.70
2023-04-21T20:45:33.726Z,7.50
2023-04-21T20:48:02.763Z,7.20
2023-04-21T20:50:31.873Z,6.50
2023-04-21T20:53:00.784Z,6.20
2023-04-21T20:55:27.582Z,7.10
2023-04-21T20:57:54.421Z,6.70
2023-04-21T21:00:23.672Z,6.63
2023-04-21T21:02:50.747Z,6.53
2023-04-21T21:05:18.015Z,7.30
2023-04-21T21:07:45.066Z,6.80
2023-04-21T21:10:11.897Z,7.43
2023-04-21T21:12:38.701Z,7.27
2023-04-21T21:15:06.001Z,6.83
2023-04-21T21:17:35.083Z,6.87
2023-04-21T21:20:04.327Z,6.77
2023-04-21T21:22:31.095Z,6.87
2023-04-21T21:24:57.854Z,7.13
2023-04-21T21:27:24.827Z,7.40
2023-04-21T21:29:51.599Z,7.00
2023-04-21T21:32:20.916Z,7.07
2023-04-21T21:34:52.163Z,7.60
2023-04-21T21:37:21.478Z,7.07
2023-04-21T21:39:48.415Z,7.87
2023-04-21T21:42:15.384Z,8.07
2023-04-21T21:44:42.145Z,7.73
2023-04-21T21:47:11.177Z,7.97
2023-04-21T21:49:38.508Z,7.73
2023-04-21T21:52:08.252Z,8.30
2023-04-21T21:54:37.400Z,8.30
2023-04-21T21:57:04.331Z,7.77
2023-04-21T21:59:31.230Z,7.00
2023-04-21T22:01:58.170Z,7.77
2023-04-21T22:04:27.354Z,8.27
2023-04-21T22:06:54.177Z,7.70
2023-04-21T22:09:21.299Z,7.83
2023-04-21T22:11:50.474Z,8.60
2023-04-21T22:14:23.360Z,7.00
2023-04-21T22:16:52.566Z,7.37
2023-04-21T22:19:19.700Z,7.33
2023-04-21T22:21:46.487Z,7.10
2023-04-21T22:24:13.370Z,8.50
2023-04-21T22:26:40.341Z,7.97
2023-04-21T22:29:07.192Z,7.73
2023-04-21T22:31:34.072Z,7.47
2023-04-21T22:34:03.967Z,6.87
2023-04-21T22:36:32.340Z,7.30
2023-04-21T22:39:01.476Z,7.53
2023-04-21T22:41:30.472Z,7.97
2023-04-21T22:43:57.232Z,7.77
2023-04-21T22:46:24.012Z,7.50
2023-04-21T22:48:54.175Z,7.60
2023-04-21T22:51:21.070Z,7.27
2023-04-21T22:53:47.823Z,7.57
2023-04-21T22:56:17.066Z,7.03
2023-04-21T22:58:43.944Z,7.53
2023-04-21T23:01:10.772Z,7.43
2023-04-21T23:03:37.658Z,7.10
2023-04-21T23:06:07.287Z,6.77
2023-04-21T23:08:34.037Z,6.67
2023-04-21T23:11:00.943Z,6.37
2023-04-21T23:13:27.730Z,6.80
2023-04-21T23:15:57.132Z,6.83
2023-04-21T23:18:23.952Z,6.40
2023-04-21T23:20:50.742Z,5.60
2023-04-21T23:23:19.719Z,6.33
2023-04-21T23:25:46.564Z,6.00
2023-04-21T23:28:13.314Z,5.70
2023-04-21T23:30:40.384Z,6.23
2023-04-21T23:33:07.265Z,5.33
2023-04-21T23:35:34.021Z,5.83
2023-04-21T23:38:00.788Z,5.70
2023-04-21T23:40:27.592Z,6.00
2023-04-21T23:42:56.604Z,6.00
2023-04-21T23:45:25.857Z,6.03
2023-04-21T23:47:55.057Z,5.70
2023-04-21T23:50:21.806Z,5.67
2023-04-21T23:52:51.075Z,6.10
2023-04-21T23:55:18.019Z,5.50
2023-04-21T23:57:46.053Z,5.63
